Time;durP1;ratioP1;P1;durP2;ratioP2;P2;SDS_P1;SDS_P2;PMS_P1;PMS_P2;Temp;Humidity;BMP_temperature;BMP_pressure;BME280_temperature;BME280_humidity;BME280_pressure;Samples;Min_cycle;Max_cycle;Signal;HPM_P1;HPM_P2
2024/01/06 00:01:13;;;;;;;4.28;1.55;;;9.30;99.90;;;;;;10061694;28;20545;-66
2024/01/06 00:06:04;;;;;;;3.13;1.58;;;9.30;99.90;;;;;;10061450;28;20087;-65
2024/01/06 00:10:55;;;;;;;2.65;1.80;;;9.30;99.90;;;;;;10060378;28;20037;-64
2024/01/06 00:15:46;;;;;;;3.85;1.40;;;9.20;99.90;;;;;;10058297;28;20626;-65
2024/01/06 00:20:36;;;;;;;2.88;1.38;;;9.20;99.90;;;;;;10060074;28;20045;-65
2024/01/06 00:25:27;;;;;;;1.98;1.17;;;9.20;99.90;;;;;;10060823;28;20179;-65
2024/01/06 00:30:18;;;;;;;4.13;1.75;;;9.20;99.90;;;;;;10060285;28;20022;-64
2024/01/06 00:35:08;;;;;;;2.92;1.15;;;9.10;99.90;;;;;;10060972;28;20172;-69
2024/01/06 00:40:00;;;;;;;2.83;1.33;;;9.10;99.90;;;;;;10060316;28;20039;-65
2024/01/06 00:44:50;;;;;;;1.27;0.90;;;9.10;99.90;;;;;;10058898;28;20095;-67
2024/01/06 00:49:41;;;;;;;3.50;1.38;;;9.10;99.90;;;;;;10059958;28;20538;-66
2024/01/06 00:54:31;;;;;;;6.00;1.60;;;9.10;99.90;;;;;;10059935;28;20033;-68
2024/01/06 00:59:22;;;;;;;3.70;1.00;;;9.10;99.90;;;;;;10059145;28;20037;-65
2024/01/06 01:04:13;;;;;;;3.08;0.95;;;9.10;99.90;;;;;;10058877;28;20537;-68
2024/01/06 01:09:04;;;;;;;3.22;1.25;;;9.10;99.90;;;;;;10059506;28;20029;-68
2024/01/06 01:13:54;;;;;;;2.15;1.10;;;9.10;99.90;;;;;;10059052;28;20040;-67
2024/01/06 01:18:45;;;;;;;3.72;1.55;;;9.10;99.90;;;;;;10058250;28;20060;-70
2024/01/06 01:23:36;;;;;;;3.10;1.85;;;9.00;99.90;;;;;;10058699;28;20407;-66
2024/01/06 01:28:27;;;;;;;3.05;1.40;;;9.10;99.90;;;;;;10048582;28;20029;-68
2024/01/06 01:33:18;;;;;;;2.92;1.30;;;9.10;99.90;;;;;;10051888;28;20026;-66
2024/01/06 01:38:08;;;;;;;1.85;1.40;;;9.10;99.90;;;;;;10057094;28;20459;-69
2024/01/06 01:42:59;;;;;;;6.60;1.15;;;9.00;99.90;;;;;;10057331;28;20037;-67
2024/01/06 01:47:50;;;;;;;2.47;1.15;;;9.00;99.90;;;;;;10055867;28;20498;-69
2024/01/06 01:52:42;;;;;;;3.78;1.20;;;8.90;99.90;;;;;;10057366;28;20037;-69
2024/01/06 01:57:33;;;;;;;2.85;1.75;;;9.00;99.90;;;;;;10059433;28;20060;-74
2024/01/06 02:02:23;;;;;;;2.83;1.33;;;9.00;99.90;;;;;;10056856;28;20041;-72
2024/01/06 02:07:14;;;;;;;3.75;1.45;;;9.00;99.90;;;;;;10056931;28;20036;-67
2024/01/06 02:12:05;;;;;;;2.53;1.02;;;8.90;99.90;;;;;;10058066;28;20041;-71
2024/01/06 02:16:56;;;;;;;2.58;1.15;;;9.00;99.90;;;;;;10055515;28;20029;-69
2024/01/06 02:21:52;;;;;;;4.00;1.42;;;9.00;99.90;;;;;;10056890;28;20057;-70
2024/01/06 02:26:43;;;;;;;2.80;1.08;;;9.00;99.90;;;;;;10056161;28;20472;-66
2024/01/06 02:31:33;;;;;;;4.82;1.40;;;9.00;99.90;;;;;;10056622;28;20025;-70
2024/01/06 02:36:24;;;;;;;3.75;1.40;;;9.00;99.90;;;;;;10056047;28;20021;-67
2024/01/06 02:41:15;;;;;;;4.53;2.45;;;8.90;99.90;;;;;;10059353;28;20041;-66
2024/01/06 02:46:07;;;;;;;2.42;1.23;;;8.90;99.90;;;;;;10055564;28;20399;-68
2024/01/06 02:50:57;;;;;;;1.35;1.13;;;8.90;99.90;;;;;;10056322;28;20025;-67
2024/01/06 02:55:48;;;;;;;1.58;0.98;;;8.90;99.90;;;;;;10055101;28;20029;-67
2024/01/06 03:00:39;;;;;;;5.47;1.42;;;8.90;99.90;;;;;;10054760;28;20099;-66
2024/01/06 03:05:29;;;;;;;3.05;1.50;;;8.80;99.90;;;;;;10055260;28;20087;-66
2024/01/06 03:10:20;;;;;;;2.20;1.50;;;8.80;99.90;;;;;;10062768;28;20184;-68
2024/01/06 03:15:11;;;;;;;3.50;1.13;;;8.80;99.90;;;;;;10067296;28;20499;-67
2024/01/06 03:20:02;;;;;;;1.77;0.93;;;8.90;99.90;;;;;;10063033;28;20037;-66
2024/01/06 03:24:52;;;;;;;2.22;1.02;;;8.90;99.90;;;;;;10066026;28;20025;-67
2024/01/06 03:29:43;;;;;;;1.95;1.38;;;8.80;99.90;;;;;;10063082;28;20030;-68
2024/01/06 03:34:34;;;;;;;2.60;1.23;;;8.80;99.90;;;;;;10062500;28;20377;-66
2024/01/06 03:39:24;;;;;;;5.10;1.60;;;8.80;99.90;;;;;;10060651;28;20041;-66
2024/01/06 03:44:15;;;;;;;1.70;1.27;;;8.80;99.90;;;;;;10061384;28;20033;-65
2024/01/06 03:49:06;;;;;;;3.38;1.25;;;8.80;99.90;;;;;;10062372;28;20037;-67
2024/01/06 03:53:56;;;;;;;2.35;1.33;;;8.80;99.90;;;;;;10061926;28;20037;-67
2024/01/06 03:58:48;;;;;;;2.13;1.00;;;8.80;99.90;;;;;;10061343;28;20113;-66
2024/01/06 04:03:42;;;;;;;2.78;1.02;;;8.80;99.90;;;;;;10065563;28;20515;-67
2024/01/06 04:08:32;;;;;;;2.08;1.45;;;8.80;99.90;;;;;;10058909;28;20126;-68
2024/01/06 04:13:24;;;;;;;3.08;1.58;;;8.80;99.90;;;;;;10064864;28;20067;-65
2024/01/06 04:18:15;;;;;;;1.58;1.10;;;8.80;99.90;;;;;;10059195;28;20041;-67
2024/01/06 04:23:05;;;;;;;3.15;1.52;;;8.90;99.90;;;;;;10056390;28;20115;-65
2024/01/06 04:27:56;;;;;;;4.22;1.60;;;8.80;99.90;;;;;;10060102;28;20060;-73
2024/01/06 04:32:48;;;;;;;2.97;1.33;;;8.80;99.90;;;;;;10058588;28;20591;-70
2024/01/06 04:37:38;;;;;;;2.35;1.10;;;8.80;99.90;;;;;;10059971;28;20075;-70
2024/01/06 04:42:29;;;;;;;1.83;1.15;;;8.80;99.90;;;;;;10060456;28;20095;-70
2024/01/06 04:47:20;;;;;;;3.38;1.80;;;8.80;99.90;;;;;;10064763;28;20029;-73
2024/01/06 04:52:11;;;;;;;2.53;1.00;;;8.80;99.90;;;;;;10058791;28;20132;-69
2024/01/06 04:57:02;;;;;;;2.63;1.40;;;8.80;99.90;;;;;;10059057;28;20033;-75
2024/01/06 05:01:53;;;;;;;2.03;1.10;;;8.80;99.90;;;;;;10060081;28;20045;-70
2024/01/06 05:06:44;;;;;;;4.60;1.20;;;8.80;99.90;;;;;;10059094;28;20041;-72
2024/01/06 05:11:35;;;;;;;2.30;0.93;;;8.80;99.90;;;;;;10065870;28;20064;-74
2024/01/06 05:16:26;;;;;;;5.80;1.13;;;8.80;99.90;;;;;;10061538;28;20168;-74
2024/01/06 05:21:16;;;;;;;3.13;1.20;;;8.80;99.90;;;;;;10059024;28;20038;-68
2024/01/06 05:26:07;;;;;;;3.97;1.60;;;8.80;99.90;;;;;;10058566;28;20057;-72
2024/01/06 05:30:58;;;;;;;5.15;1.60;;;8.80;99.90;;;;;;10058664;28;20049;-70
2024/01/06 05:35:48;;;;;;;1.77;1.10;;;8.80;99.90;;;;;;10058598;28;20036;-69
2024/01/06 05:40:39;;;;;;;1.38;1.20;;;8.70;99.90;;;;;;10058064;28;20033;-71
2024/01/06 05:45:30;;;;;;;2.13;1.20;;;8.70;99.90;;;;;;10057246;28;20021;-73
2024/01/06 05:50:20;;;;;;;2.55;1.13;;;8.70;99.90;;;;;;10057684;28;20041;-69
2024/01/06 05:55:11;;;;;;;1.55;1.25;;;8.70;99.90;;;;;;10057745;28;20493;-67
2024/01/06 06:00:02;;;;;;;11.65;1.58;;;8.70;99.90;;;;;;10057466;28;20643;-72
2024/01/06 06:04:52;;;;;;;2.75;2.03;;;8.60;99.90;;;;;;10057583;28;20094;-71
2024/01/06 06:09:43;;;;;;;3.28;1.63;;;8.70;99.90;;;;;;10057474;28;20021;-74
2024/01/06 06:14:34;;;;;;;1.95;1.33;;;8.70;99.90;;;;;;10061967;28;20033;-72
2024/01/06 06:19:24;;;;;;;2.38;1.30;;;8.70;99.90;;;;;;10057544;28;20407;-75
2024/01/06 06:24:15;;;;;;;3.42;1.65;;;8.70;99.90;;;;;;10060834;28;20353;-74
2024/01/06 06:29:06;;;;;;;4.90;1.95;;;8.70;99.90;;;;;;10056612;28;20037;-72
2024/01/06 06:33:56;;;;;;;4.43;1.40;;;8.60;99.90;;;;;;10056320;28;20033;-73
2024/01/06 06:38:47;;;;;;;1.85;1.52;;;8.70;99.90;;;;;;10056122;28;20414;-72
2024/01/06 06:43:38;;;;;;;1.92;0.98;;;8.70;99.90;;;;;;10055453;28;20033;-71
2024/01/06 06:48:28;;;;;;;1.77;1.50;;;8.70;99.90;;;;;;10055895;28;20629;-73
2024/01/06 06:53:19;;;;;;;3.70;2.15;;;8.70;99.90;;;;;;10055996;28;20275;-66
2024/01/06 06:58:10;;;;;;;3.30;1.90;;;8.70;99.90;;;;;;10056344;28;20037;-67
2024/01/06 07:03:00;;;;;;;3.78;2.30;;;8.70;99.90;;;;;;10056357;28;20050;-68
2024/01/06 07:07:51;;;;;;;3.67;2.25;;;8.60;99.90;;;;;;10030868;28;20037;-67
2024/01/06 07:12:42;;;;;;;9.27;2.03;;;8.60;99.90;;;;;;10055904;28;20100;-70
2024/01/06 07:17:32;;;;;;;3.38;2.00;;;8.70;99.90;;;;;;10054650;28;20171;-69
2024/01/06 07:22:23;;;;;;;3.88;2.38;;;8.70;99.90;;;;;;10054881;28;20052;-66
2024/01/06 07:27:14;;;;;;;5.60;2.70;;;8.70;99.90;;;;;;10055069;28;20032;-69
2024/01/06 07:32:08;;;;;;;4.18;1.83;;;8.70;99.90;;;;;;10056574;28;20029;-69
2024/01/06 07:36:59;;;;;;;6.63;2.33;;;8.70;99.90;;;;;;10054928;28;20560;-70
2024/01/06 07:41:51;;;;;;;6.13;2.35;;;8.70;99.90;;;;;;10055597;28;20086;-70
2024/01/06 07:46:42;;;;;;;2.47;1.92;;;8.70;99.90;;;;;;10055556;28;20035;-69
2024/01/06 07:51:34;;;;;;;3.08;1.70;;;8.70;99.90;;;;;;10055311;28;20117;-66
2024/01/06 07:56:25;;;;;;;3.30;2.38;;;8.70;99.90;;;;;;10057979;28;20021;-68
2024/01/06 08:01:16;;;;;;;2.78;1.83;;;8.70;99.90;;;;;;10061996;28;20622;-65
2024/01/06 08:06:06;;;;;;;4.50;1.77;;;8.60;99.90;;;;;;10094154;28;20030;-67
2024/01/06 08:10:57;;;;;;;3.55;2.28;;;8.60;99.90;;;;;;10067804;28;20036;-67
2024/01/06 08:15:48;;;;;;;5.78;2.70;;;8.60;99.90;;;;;;10061166;28;20120;-67
2024/01/06 08:20:38;;;;;;;4.55;1.90;;;8.60;99.90;;;;;;10061304;28;20095;-69
2024/01/06 08:25:29;;;;;;;3.67;2.05;;;8.60;99.90;;;;;;10051820;28;20037;-68
2024/01/06 08:30:20;;;;;;;2.85;1.50;;;8.60;99.90;;;;;;10056116;28;20052;-65
2024/01/06 08:35:10;;;;;;;3.55;1.98;;;8.70;99.90;;;;;;10060289;28;20091;-67
2024/01/06 08:40:03;;;;;;;2.70;2.22;;;8.70;99.90;;;;;;10080235;28;20040;-67
2024/01/06 08:44:53;;;;;;;3.58;2.17;;;8.70;99.90;;;;;;10072584;28;20091;-69
2024/01/06 08:49:44;;;;;;;3.30;1.77;;;8.70;99.90;;;;;;10072809;28;20037;-72
2024/01/06 08:54:35;;;;;;;5.50;2.20;;;8.70;99.90;;;;;;10073624;28;20562;-67
2024/01/06 08:59:26;;;;;;;2.70;1.65;;;8.80;99.90;;;;;;10070539;28;20077;-71
2024/01/06 09:04:16;;;;;;;3.40;2.15;;;8.80;99.90;;;;;;10061094;28;20037;-72
2024/01/06 09:09:08;;;;;;;4.72;2.95;;;8.80;99.90;;;;;;10060955;28;20040;-71
2024/01/06 09:13:59;;;;;;;5.10;2.08;;;8.80;99.90;;;;;;10054742;28;20147;-72
2024/01/06 09:18:49;;;;;;;3.65;2.45;;;8.90;99.90;;;;;;10069150;28;20348;-74
2024/01/06 09:23:40;;;;;;;5.82;2.75;;;8.80;99.90;;;;;;10069163;28;20049;-67
2024/01/06 09:28:31;;;;;;;7.32;3.55;;;8.90;99.90;;;;;;10062071;28;20025;-72
2024/01/06 09:33:22;;;;;;;4.35;2.63;;;8.90;99.90;;;;;;10058720;28;20027;-73
2024/01/06 09:38:13;;;;;;;4.22;2.60;;;8.90;99.90;;;;;;10057990;28;20084;-71
2024/01/06 09:43:04;;;;;;;4.82;2.80;;;8.90;99.90;;;;;;10057682;28;20432;-72
2024/01/06 09:47:55;;;;;;;5.25;2.85;;;8.80;99.90;;;;;;10057765;28;20033;-72
2024/01/06 09:52:54;;;;;;;3.00;2.00;;;8.80;99.90;;;;;;10057642;28;20032;-71
2024/01/06 09:57:45;;;;;;;4.88;2.30;;;8.90;99.90;;;;;;10052719;28;20104;-69
2024/01/06 10:02:36;;;;;;;4.38;1.92;;;8.90;99.90;;;;;;10049526;28;20038;-66
2024/01/06 10:07:26;;;;;;;3.85;2.17;;;8.90;99.90;;;;;;10058321;28;20029;-66
2024/01/06 10:12:17;;;;;;;3.67;2.13;;;8.90;99.90;;;;;;10065138;28;20060;-69
2024/01/06 10:17:08;;;;;;;2.55;2.15;;;8.80;99.90;;;;;;10057083;28;20067;-67
2024/01/06 10:22:02;;;;;;;2.53;2.33;;;8.80;99.90;;;;;;10050420;28;20054;-65
2024/01/06 10:26:52;;;;;;;2.58;1.77;;;8.80;99.90;;;;;;10057437;28;20105;-66
2024/01/06 10:31:43;;;;;;;5.43;1.73;;;8.80;99.90;;;;;;10057377;28;20491;-66
2024/01/06 10:36:35;;;;;;;5.68;2.42;;;8.80;99.90;;;;;;10056703;28;20061;-66
2024/01/06 10:41:27;;;;;;;2.90;1.90;;;8.80;99.90;;;;;;10038355;28;20490;-65
2024/01/06 10:46:24;;;;;;;2.65;1.90;;;8.80;99.90;;;;;;10063936;28;20050;-66
2024/01/06 10:51:15;;;;;;;2.00;1.80;;;8.70;99.90;;;;;;10047362;28;20028;-65
2024/01/06 10:56:09;;;;;;;3.35;1.77;;;8.70;99.90;;;;;;10048268;28;20057;-65
2024/01/06 11:01:00;;;;;;;3.13;2.13;;;8.70;99.90;;;;;;10036418;28;20586;-65
2024/01/06 11:05:51;;;;;;;1.85;1.52;;;8.70;99.90;;;;;;10052610;28;20593;-65
2024/01/06 11:10:42;;;;;;;5.30;1.85;;;8.60;99.90;;;;;;10056241;28;20033;-65
2024/01/06 11:15:42;;;;;;;2.60;1.80;;;8.70;99.90;;;;;;10039746;28;20361;-67
2024/01/06 11:20:33;;;;;;;9.30;1.83;;;8.70;99.90;;;;;;10045129;28;20041;-73
2024/01/06 11:25:25;;;;;;;3.75;1.63;;;8.70;99.90;;;;;;10046151;28;20033;-70
2024/01/06 11:30:24;;;;;;;2.22;1.35;;;8.80;99.90;;;;;;10055522;28;20171;-66
2024/01/06 11:35:16;;;;;;;4.32;1.50;;;8.80;99.90;;;;;;10048399;28;20383;-70
2024/01/06 11:40:21;;;;;;;2.30;1.75;;;8.80;99.90;;;;;;10047172;28;20091;-66
2024/01/06 11:45:13;;;;;;;2.60;1.42;;;8.80;99.90;;;;;;10060208;28;20044;-68
2024/01/06 11:50:04;;;;;;;2.28;1.50;;;8.70;99.90;;;;;;10059461;28;20191;-67
2024/01/06 11:54:56;;;;;;;3.80;1.38;;;8.70;99.90;;;;;;10057468;28;20143;-66
2024/01/06 11:59:48;;;;;;;2.78;1.35;;;8.70;99.90;;;;;;10062260;28;20041;-70
2024/01/06 12:04:42;;;;;;;2.60;1.85;;;8.70;99.90;;;;;;10061738;28;20022;-67
2024/01/06 12:09:33;;;;;;;3.08;1.65;;;8.70;99.90;;;;;;10061768;28;20028;-68
2024/01/06 12:14:24;;;;;;;3.08;1.25;;;8.60;99.90;;;;;;10063480;28;20500;-67
2024/01/06 12:19:14;;;;;;;2.92;1.45;;;8.60;99.90;;;;;;10061112;28;20049;-69
2024/01/06 12:24:20;;;;;;;3.30;1.83;;;8.70;99.90;;;;;;10060660;28;20034;-67
2024/01/06 12:29:11;;;;;;;1.58;1.38;;;8.70;99.90;;;;;;10057374;28;20075;-70
2024/01/06 12:34:04;;;;;;;3.63;1.40;;;8.70;99.90;;;;;;10060292;28;20049;-73
2024/01/06 12:38:56;;;;;;;2.00;1.63;;;8.70;99.90;;;;;;10060325;28;20029;-72
2024/01/06 12:43:47;;;;;;;2.42;1.88;;;8.60;99.90;;;;;;10059238;28;20078;-74
2024/01/06 12:48:38;;;;;;;3.97;1.67;;;8.60;99.90;;;;;;10059286;28;20025;-73
2024/01/06 12:53:29;;;;;;;3.97;2.08;;;8.60;99.90;;;;;;10060540;28;20040;-70
2024/01/06 12:58:19;;;;;;;2.67;1.98;;;8.60;99.90;;;;;;10058157;28;20025;-67
2024/01/06 13:03:10;;;;;;;1.90;1.50;;;8.60;99.90;;;;;;10059606;28;20038;-71
2024/01/06 13:08:01;;;;;;;1.98;1.40;;;8.80;99.90;;;;;;10059120;28;20048;-68
2024/01/06 13:12:52;;;;;;;2.15;1.50;;;8.80;99.90;;;;;;10059319;28;20041;-66
2024/01/06 13:17:43;;;;;;;3.90;2.10;;;8.80;99.90;;;;;;10059473;28;20033;-68
2024/01/06 13:22:34;;;;;;;3.92;2.25;;;8.90;99.90;;;;;;10059634;28;20056;-70
2024/01/06 13:27:27;;;;;;;2.38;1.65;;;8.90;99.90;;;;;;10062711;28;20025;-71
2024/01/06 13:32:19;;;;;;;3.22;1.70;;;8.80;99.90;;;;;;10058333;28;20029;-72
2024/01/06 13:37:10;;;;;;;4.25;1.73;;;8.90;99.90;;;;;;10058321;28;20029;-70
2024/01/06 13:42:03;;;;;;;5.07;2.67;;;8.90;99.90;;;;;;10058590;28;20061;-73
2024/01/06 13:46:54;;;;;;;3.63;1.73;;;8.80;99.90;;;;;;10056252;28;20450;-74
2024/01/06 13:51:45;;;;;;;2.47;1.40;;;8.80;99.90;;;;;;10058066;28;20057;-75
2024/01/06 13:56:36;;;;;;;2.83;1.67;;;8.80;99.90;;;;;;10057796;28;20532;-70
2024/01/06 14:01:27;;;;;;;1.95;1.38;;;8.70;99.90;;;;;;10057905;28;20117;-72
2024/01/06 14:06:18;;;;;;;2.60;1.75;;;8.70;99.90;;;;;;10057891;28;20124;-72
2024/01/06 14:11:08;;;;;;;2.92;1.70;;;8.80;99.90;;;;;;10064415;28;20102;-70
2024/01/06 14:15:59;;;;;;;2.70;1.17;;;8.60;99.90;;;;;;10057475;28;20071;-73
2024/01/06 14:20:51;;;;;;;2.08;1.15;;;8.70;99.90;;;;;;10047040;28;20057;-71
2024/01/06 14:25:42;;;;;;;5.90;1.58;;;8.60;99.90;;;;;;10055167;28;20017;-70
2024/01/06 14:30:33;;;;;;;3.17;1.83;;;8.60;99.90;;;;;;10056966;28;20507;-71
2024/01/06 14:35:24;;;;;;;3.20;1.63;;;8.70;99.90;;;;;;10056173;28;20104;-67
2024/01/06 14:40:15;;;;;;;3.75;2.00;;;8.60;99.90;;;;;;10055158;28;20136;-67
2024/01/06 14:45:08;;;;;;;2.88;1.55;;;8.70;99.90;;;;;;10056433;28;20032;-67
2024/01/06 14:49:58;;;;;;;2.15;1.38;;;8.70;99.90;;;;;;10057146;28;20022;-69
2024/01/06 14:54:49;;;;;;;3.60;1.75;;;8.60;99.90;;;;;;10056048;28;20446;-67
2024/01/06 14:59:40;;;;;;;2.63;1.63;;;8.60;99.90;;;;;;10056428;28;20049;-70
2024/01/06 15:04:30;;;;;;;5.03;2.28;;;8.70;99.90;;;;;;10057372;28;21134;-70
2024/01/06 15:09:24;;;;;;;3.33;2.10;;;8.70;99.90;;;;;;10064177;28;20033;-70
2024/01/06 15:14:14;;;;;;;4.00;1.88;;;8.70;99.90;;;;;;10063084;28;20029;-69
2024/01/06 15:19:07;;;;;;;2.75;2.13;;;8.70;99.90;;;;;;10063665;28;20065;-66
2024/01/06 15:23:58;;;;;;;3.45;1.95;;;8.60;99.90;;;;;;10063492;28;20132;-66
2024/01/06 15:28:49;;;;;;;4.88;1.70;;;8.60;99.90;;;;;;10063387;28;20105;-68
2024/01/06 15:33:42;;;;;;;3.40;1.50;;;8.50;99.90;;;;;;10062449;28;21543;-68
2024/01/06 15:38:32;;;;;;;3.00;1.67;;;8.50;99.90;;;;;;10061273;28;20046;-70
2024/01/06 15:43:23;;;;;;;3.15;1.65;;;8.50;99.90;;;;;;10061819;28;20045;-68
2024/01/06 15:48:14;;;;;;;3.35;1.98;;;8.50;99.90;;;;;;10062575;28;20039;-69
2024/01/06 15:53:04;;;;;;;3.63;1.73;;;8.50;99.90;;;;;;10062501;28;20518;-70
2024/01/06 15:57:55;;;;;;;4.35;2.40;;;8.50;99.90;;;;;;10062261;28;20037;-67
2024/01/06 16:02:45;;;;;;;2.55;1.38;;;8.60;99.90;;;;;;10062931;28;20037;-66
2024/01/06 16:07:36;;;;;;;4.47;2.45;;;8.60;99.90;;;;;;10061874;28;20116;-66
2024/01/06 16:12:29;;;;;;;2.75;2.38;;;8.50;99.90;;;;;;10061715;28;20033;-66
2024/01/06 16:17:19;;;;;;;3.53;1.85;;;8.50;99.90;;;;;;10058646;28;20124;-66
2024/01/06 16:22:10;;;;;;;2.88;1.98;;;8.50;99.90;;;;;;10061244;28;20194;-66
2024/01/06 16:27:00;;;;;;;4.85;2.10;;;8.50;99.90;;;;;;10060846;28;20667;-68
2024/01/06 16:31:51;;;;;;;3.33;2.03;;;8.50;99.90;;;;;;10061159;28;20044;-66
2024/01/06 16:36:42;;;;;;;3.70;1.85;;;8.50;99.90;;;;;;10060340;28;20085;-69
2024/01/06 16:41:33;;;;;;;12.40;5.28;;;8.50;99.90;;;;;;10060314;28;20041;-69
2024/01/06 16:46:23;;;;;;;5.20;2.78;;;8.50;99.90;;;;;;10059675;28;20083;-69
2024/01/06 16:51:15;;;;;;;3.42;2.20;;;8.50;99.90;;;;;;10060589;28;20694;-68
2024/01/06 16:56:06;;;;;;;3.35;2.03;;;8.50;99.90;;;;;;10060640;28;20041;-68
2024/01/06 17:00:57;;;;;;;2.55;1.60;;;8.60;99.90;;;;;;10059322;28;20030;-67
2024/01/06 17:05:47;;;;;;;2.75;1.98;;;8.60;99.90;;;;;;10056983;28;20037;-66
2024/01/06 17:10:38;;;;;;;4.68;2.22;;;8.50;99.90;;;;;;10056960;28;20108;-68
2024/01/06 17:15:29;;;;;;;5.45;2.40;;;8.60;99.90;;;;;;10089170;28;20029;-66
2024/01/06 17:20:19;;;;;;;2.05;1.60;;;8.50;99.90;;;;;;10066576;28;20542;-67
2024/01/06 17:25:12;;;;;;;5.03;2.08;;;8.50;99.90;;;;;;10066526;28;20086;-67
2024/01/06 17:30:04;;;;;;;3.17;1.80;;;8.50;99.90;;;;;;10058506;28;20064;-67
2024/01/06 17:34:54;;;;;;;4.05;1.80;;;8.40;99.90;;;;;;10058077;28;20114;-67
2024/01/06 17:39:45;;;;;;;3.78;1.80;;;8.50;99.90;;;;;;10057790;28;20032;-69
2024/01/06 17:44:38;;;;;;;3.85;2.33;;;8.50;99.90;;;;;;10058227;28;20032;-67
2024/01/06 17:49:30;;;;;;;2.63;1.45;;;8.40;99.90;;;;;;10057769;28;20029;-66
2024/01/06 17:54:20;;;;;;;2.20;1.67;;;8.40;99.90;;;;;;10052848;28;20022;-64
2024/01/06 17:59:12;;;;;;;3.80;2.25;;;8.50;99.90;;;;;;10055121;28;20037;-64
2024/01/06 18:04:02;;;;;;;2.92;1.80;;;8.50;99.90;;;;;;10055802;28;20376;-65
2024/01/06 18:08:53;;;;;;;4.22;2.03;;;8.50;99.90;;;;;;10049564;28;20557;-70
2024/01/06 18:13:44;;;;;;;3.03;2.00;;;8.50;99.90;;;;;;10045360;28;20029;-64
2024/01/06 18:18:34;;;;;;;5.68;2.92;;;8.50;99.90;;;;;;10051533;28;20037;-67
2024/01/06 18:23:25;;;;;;;3.78;2.25;;;8.50;99.90;;;;;;10046668;28;20060;-66
2024/01/06 18:28:15;;;;;;;4.22;2.22;;;8.50;99.90;;;;;;10037359;28;20107;-65
2024/01/06 18:33:06;;;;;;;3.00;1.83;;;8.60;99.90;;;;;;10033504;28;20037;-65
2024/01/06 18:37:57;;;;;;;6.25;2.30;;;8.60;99.90;;;;;;10056308;28;20033;-67
2024/01/06 18:42:47;;;;;;;3.90;2.33;;;8.50;99.90;;;;;;10053718;28;20041;-69
2024/01/06 18:47:41;;;;;;;3.17;1.98;;;8.50;99.90;;;;;;10052462;28;20031;-68
2024/01/06 18:52:32;;;;;;;4.07;2.08;;;8.50;99.90;;;;;;10076778;28;20499;-67
2024/01/06 18:57:24;;;;;;;6.18;2.50;;;8.50;99.90;;;;;;10044735;28;20104;-66
2024/01/06 19:02:15;;;;;;;5.90;2.53;;;8.50;99.90;;;;;;10040895;28;20041;-68
2024/01/06 19:07:05;;;;;;;5.55;2.90;;;8.50;99.90;;;;;;10044735;28;20028;-64
2024/01/06 19:11:58;;;;;;;3.85;2.50;;;8.50;99.90;;;;;;10052055;28;20035;-64
2024/01/06 19:16:50;;;;;;;4.13;2.83;;;8.40;99.90;;;;;;10049591;28;20092;-63
2024/01/06 19:21:40;;;;;;;6.00;3.33;;;8.40;99.90;;;;;;10052902;28;20048;-64
2024/01/06 19:26:31;;;;;;;4.93;2.60;;;8.40;99.90;;;;;;10052443;28;20028;-61
2024/01/06 19:31:22;;;;;;;4.47;2.72;;;8.40;99.90;;;;;;10052428;28;20298;-65
2024/01/06 19:36:13;;;;;;;6.05;2.75;;;8.40;99.90;;;;;;10051119;28;20030;-66
2024/01/06 19:41:04;;;;;;;5.78;3.00;;;8.40;99.90;;;;;;10052384;28;20092;-65
2024/01/06 19:45:55;;;;;;;4.00;2.22;;;8.40;99.90;;;;;;10036940;28;20069;-65
2024/01/06 19:50:46;;;;;;;7.72;2.38;;;8.30;99.90;;;;;;10055618;28;20045;-65
2024/01/06 19:55:36;;;;;;;5.20;2.42;;;8.40;99.90;;;;;;10061385;28;20025;-65
2024/01/06 20:00:30;;;;;;;3.15;2.03;;;8.30;99.90;;;;;;10056138;28;20124;-64
2024/01/06 20:05:21;;;;;;;3.97;2.25;;;8.30;99.90;;;;;;10049927;28;20025;-64
2024/01/06 20:10:11;;;;;;;3.70;2.25;;;8.30;99.90;;;;;;10057921;28;20033;-67
2024/01/06 20:15:02;;;;;;;4.65;2.60;;;8.30;99.90;;;;;;10058682;28;20033;-68
2024/01/06 20:19:54;;;;;;;4.43;2.53;;;8.20;99.90;;;;;;10050804;28;20042;-67
2024/01/06 20:24:44;;;;;;;3.63;2.20;;;8.30;99.90;;;;;;10061635;28;20527;-65
2024/01/06 20:29:35;;;;;;;6.80;2.65;;;8.20;99.90;;;;;;10058550;28;20049;-66
2024/01/06 20:34:26;;;;;;;4.88;2.15;;;8.10;99.90;;;;;;10059412;28;20037;-64
2024/01/06 20:39:20;;;;;;;3.67;2.58;;;8.30;99.90;;;;;;10057334;28;20033;-68
2024/01/06 20:44:10;;;;;;;4.25;2.55;;;8.20;99.90;;;;;;10059304;28;20068;-69
2024/01/06 20:49:01;;;;;;;4.43;2.72;;;8.20;99.90;;;;;;10055418;28;20040;-68
2024/01/06 20:53:52;;;;;;;5.60;2.47;;;8.10;99.90;;;;;;10053571;28;20416;-70
2024/01/06 20:58:46;;;;;;;4.75;2.35;;;8.10;99.90;;;;;;10056128;28;20488;-73
2024/01/06 21:03:38;;;;;;;5.70;2.90;;;8.10;99.90;;;;;;10054651;28;20033;-66
2024/01/06 21:08:29;;;;;;;3.95;2.50;;;8.10;99.90;;;;;;10045716;28;20513;-69
2024/01/06 21:13:19;;;;;;;5.53;2.50;;;8.10;99.90;;;;;;10049779;28;20033;-65
2024/01/06 21:18:10;;;;;;;3.95;2.72;;;8.10;99.90;;;;;;10046145;28;20574;-70
2024/01/06 21:23:02;;;;;;;6.78;4.05;;;8.10;99.90;;;;;;10051699;28;20053;-65
2024/01/06 21:27:53;;;;;;;4.07;2.65;;;8.10;99.90;;;;;;10044831;28;20029;-66
2024/01/06 21:32:46;;;;;;;5.68;2.35;;;8.20;99.90;;;;;;10054653;28;20036;-64
2024/01/06 21:37:38;;;;;;;4.72;2.55;;;8.20;99.90;;;;;;10044568;28;20049;-67
2024/01/06 21:42:29;;;;;;;3.00;2.17;;;8.10;99.90;;;;;;10052821;28;20060;-66
2024/01/06 21:47:19;;;;;;;3.67;2.42;;;8.10;99.90;;;;;;10034996;28;20022;-68
2024/01/06 21:52:10;;;;;;;9.25;3.03;;;8.10;99.90;;;;;;10054997;28;20274;-69
2024/01/06 21:57:01;;;;;;;4.18;2.90;;;8.10;99.90;;;;;;10051654;28;20036;-65
2024/01/06 22:01:51;;;;;;;5.30;2.97;;;8.10;99.90;;;;;;10051960;28;20056;-65
2024/01/06 22:06:42;;;;;;;4.43;2.78;;;8.10;99.90;;;;;;10043722;28;20025;-66
2024/01/06 22:11:37;;;;;;;4.68;2.85;;;8.10;99.90;;;;;;10044184;28;20037;-71
2024/01/06 22:16:28;;;;;;;5.50;3.05;;;8.10;99.90;;;;;;10050225;28;20497;-67
2024/01/06 22:21:19;;;;;;;6.13;3.55;;;8.10;99.90;;;;;;10056475;28;20124;-67
2024/01/06 22:26:09;;;;;;;5.10;3.30;;;8.10;99.90;;;;;;10045057;28;20082;-68
2024/01/06 22:31:02;;;;;;;18.27;9.40;;;8.00;99.90;;;;;;10044771;28;20098;-69
2024/01/06 22:35:53;;;;;;;12.65;7.43;;;8.00;99.90;;;;;;10050548;28;20783;-69
2024/01/06 22:40:43;;;;;;;7.85;4.43;;;8.10;99.90;;;;;;10049154;28;20022;-65
2024/01/06 22:45:34;;;;;;;6.72;3.83;;;8.10;99.90;;;;;;10053936;28;20045;-66
2024/01/06 22:50:25;;;;;;;5.90;3.72;;;8.10;99.90;;;;;;10050609;28;20087;-68
2024/01/06 22:55:16;;;;;;;6.57;3.35;;;8.10;99.90;;;;;;10055869;28;20041;-68
2024/01/06 23:00:16;;;;;;;6.57;3.65;;;8.00;99.90;;;;;;10056640;28;20108;-65
2024/01/06 23:05:08;;;;;;;7.47;3.08;;;8.00;99.90;;;;;;10054947;28;20033;-68
2024/01/06 23:09:58;;;;;;;4.78;2.85;;;8.00;99.90;;;;;;10055567;28;20100;-66
2024/01/06 23:14:49;;;;;;;8.98;3.05;;;8.00;99.90;;;;;;10054154;28;20124;-68
2024/01/06 23:19:40;;;;;;;5.72;2.97;;;8.00;99.90;;;;;;10054764;28;20045;-68
2024/01/06 23:24:32;;;;;;;5.85;3.15;;;8.00;99.90;;;;;;10055093;28;20048;-66
2024/01/06 23:29:23;;;;;;;5.07;2.55;;;7.90;99.90;;;;;;10063140;28;20034;-70
2024/01/06 23:34:14;;;;;;;5.95;3.25;;;7.90;99.90;;;;;;10062671;28;20029;-69
2024/01/06 23:39:05;;;;;;;6.80;2.95;;;7.90;99.90;;;;;;10062545;28;20438;-69
2024/01/06 23:43:56;;;;;;;8.00;2.95;;;7.90;99.90;;;;;;10067220;28;20045;-69
2024/01/06 23:48:46;;;;;;;4.40;2.58;;;7.90;99.90;;;;;;10061862;28;20033;-67
2024/01/06 23:53:37;;;;;;;5.80;2.58;;;7.90;99.90;;;;;;10059777;28;20030;-71
2024/01/06 23:58:27;;;;;;;6.05;2.80;;;7.90;99.90;;;;;;10063406;28;20029;-71
